sensor_id;sensor_type;location;lat;lon;timestamp;temperature;humidity
54898;DHT22;40800;52.704;6.398;2022-07-23T00:02:06;13.20;99.90
54898;DHT22;40800;52.704;6.398;2022-07-23T00:04:32;13.30;99.90
54898;DHT22;40800;52.704;6.398;2022-07-23T00:06:58;13.10;99.90
54898;DHT22;40800;52.704;6.398;2022-07-23T00:09:24;13.10;99.90
54898;DHT22;40800;52.704;6.398;2022-07-23T00:11:49;13.40;99.90
54898;DHT22;40800;52.704;6.398;2022-07-23T00:14:15;13.10;99.90
54898;DHT22;40800;52.704;6.398;2022-07-23T00:16:40;13.20;99.90
54898;DHT22;40800;52.704;6.398;2022-07-23T00:19:06;13.10;99.90
54898;DHT22;40800;52.704;6.398;2022-07-23T00:21:32;13.50;99.90
54898;DHT22;40800;52.704;6.398;2022-07-23T00:23:57;13.50;99.90
54898;DHT22;40800;52.704;6.398;2022-07-23T00:26:23;13.10;99.90
54898;DHT22;40800;52.704;6.398;2022-07-23T00:28:49;12.90;99.90
54898;DHT22;40800;52.704;6.398;2022-07-23T00:31:14;12.60;99.90
54898;DHT22;40800;52.704;6.398;2022-07-23T00:33:40;12.50;99.90
54898;DHT22;40800;52.704;6.398;2022-07-23T00:36:06;12.30;99.90
54898;DHT22;40800;52.704;6.398;2022-07-23T00:38:32;12.30;99.90
54898;DHT22;40800;52.704;6.398;2022-07-23T00:40:58;12.30;99.90
54898;DHT22;40800;52.704;6.398;2022-07-23T00:43:23;12.50;99.90
54898;DHT22;40800;52.704;6.398;2022-07-23T00:45:49;12.60;99.90
54898;DHT22;40800;52.704;6.398;2022-07-23T00:48:15;12.50;99.90
54898;DHT22;40800;52.704;6.398;2022-07-23T00:50:40;12.60;99.90
54898;DHT22;40800;52.704;6.398;2022-07-23T00:53:06;12.70;99.90
54898;DHT22;40800;52.704;6.398;2022-07-23T00:55:34;12.70;99.90
54898;DHT22;40800;52.704;6.398;2022-07-23T00:57:59;12.80;99.90
54898;DHT22;40800;52.704;6.398;2022-07-23T01:00:26;12.70;99.90
54898;DHT22;40800;52.704;6.398;2022-07-23T01:02:51;12.70;99.90
54898;DHT22;40800;52.704;6.398;2022-07-23T01:05:17;12.80;99.90
54898;DHT22;40800;52.704;6.398;2022-07-23T01:07:48;12.80;99.90
54898;DHT22;40800;52.704;6.398;2022-07-23T01:10:14;12.90;99.90
54898;DHT22;40800;52.704;6.398;2022-07-23T01:13:06;12.70;99.90
54898;DHT22;40800;52.704;6.398;2022-07-23T01:15:33;12.70;99.90
54898;DHT22;40800;52.704;6.398;2022-07-23T01:18:00;12.70;99.90
54898;DHT22;40800;52.704;6.398;2022-07-23T01:20:26;13.20;99.90
54898;DHT22;40800;52.704;6.398;2022-07-23T01:22:52;12.80;99.90
54898;DHT22;40800;52.704;6.398;2022-07-23T01:25:18;12.70;99.90
54898;DHT22;40800;52.704;6.398;2022-07-23T01:27:44;12.80;99.90
54898;DHT22;40800;52.704;6.398;2022-07-23T01:30:10;13.00;99.90
54898;DHT22;40800;52.704;6.398;2022-07-23T01:32:36;12.60;99.90
54898;DHT22;40800;52.704;6.398;2022-07-23T01:35:02;12.70;99.90
54898;DHT22;40800;52.704;6.398;2022-07-23T01:37:27;12.50;99.90
54898;DHT22;40800;52.704;6.398;2022-07-23T01:39:53;12.50;99.90
54898;DHT22;40800;52.704;6.398;2022-07-23T01:42:19;12.60;99.90
54898;DHT22;40800;52.704;6.398;2022-07-23T01:44:44;12.40;99.90
54898;DHT22;40800;52.704;6.398;2022-07-23T01:47:10;12.40;99.90
54898;DHT22;40800;52.704;6.398;2022-07-23T01:49:36;12.40;99.90
54898;DHT22;40800;52.704;6.398;2022-07-23T01:52:02;12.30;99.90
54898;DHT22;40800;52.704;6.398;2022-07-23T01:54:30;12.10;99.90
54898;DHT22;40800;52.704;6.398;2022-07-23T01:56:56;12.10;99.90
54898;DHT22;40800;52.704;6.398;2022-07-23T01:59:22;11.80;99.90
54898;DHT22;40800;52.704;6.398;2022-07-23T02:01:48;11.70;99.90
54898;DHT22;40800;52.704;6.398;2022-07-23T02:04:16;11.40;99.90
54898;DHT22;40800;52.704;6.398;2022-07-23T02:06:42;11.30;99.90
54898;DHT22;40800;52.704;6.398;2022-07-23T02:09:08;11.40;99.90
54898;DHT22;40800;52.704;6.398;2022-07-23T02:11:33;11.50;99.90
54898;DHT22;40800;52.704;6.398;2022-07-23T02:13:59;11.50;99.90
54898;DHT22;40800;52.704;6.398;2022-07-23T02:16:24;11.60;99.90
54898;DHT22;40800;52.704;6.398;2022-07-23T02:18:50;11.40;99.90
54898;DHT22;40800;52.704;6.398;2022-07-23T02:21:16;11.50;99.90
54898;DHT22;40800;52.704;6.398;2022-07-23T02:23:41;11.60;99.90
54898;DHT22;40800;52.704;6.398;2022-07-23T02:26:07;11.70;99.90
54898;DHT22;40800;52.704;6.398;2022-07-23T02:28:33;11.80;99.90
54898;DHT22;40800;52.704;6.398;2022-07-23T02:30:58;11.80;99.90
54898;DHT22;40800;52.704;6.398;2022-07-23T02:33:24;11.90;99.90
54898;DHT22;40800;52.704;6.398;2022-07-23T02:35:49;11.80;99.90
54898;DHT22;40800;52.704;6.398;2022-07-23T02:38:15;11.60;99.90
54898;DHT22;40800;52.704;6.398;2022-07-23T02:40:41;11.20;99.90
54898;DHT22;40800;52.704;6.398;2022-07-23T02:43:06;11.00;99.90
54898;DHT22;40800;52.704;6.398;2022-07-23T02:45:32;10.90;99.90
54898;DHT22;40800;52.704;6.398;2022-07-23T02:47:57;10.80;99.90
54898;DHT22;40800;52.704;6.398;2022-07-23T02:50:23;11.30;99.90
54898;DHT22;40800;52.704;6.398;2022-07-23T02:52:49;11.10;99.90
54898;DHT22;40800;52.704;6.398;2022-07-23T02:55:14;11.20;99.90
54898;DHT22;40800;52.704;6.398;2022-07-23T02:57:40;11.20;99.90
54898;DHT22;40800;52.704;6.398;2022-07-23T03:00:06;11.10;99.90
54898;DHT22;40800;52.704;6.398;2022-07-23T03:02:32;11.10;99.90
54898;DHT22;40800;52.704;6.398;2022-07-23T03:04:58;11.30;99.90
54898;DHT22;40800;52.704;6.398;2022-07-23T03:07:24;11.20;99.90
54898;DHT22;40800;52.704;6.398;2022-07-23T03:09:49;11.20;99.90
54898;DHT22;40800;52.704;6.398;2022-07-23T03:12:15;11.00;99.90
54898;DHT22;40800;52.704;6.398;2022-07-23T03:14:41;11.10;99.90
54898;DHT22;40800;52.704;6.398;2022-07-23T03:17:07;11.10;99.90
54898;DHT22;40800;52.704;6.398;2022-07-23T03:19:33;11.20;99.90
54898;DHT22;40800;52.704;6.398;2022-07-23T03:21:59;11.20;99.90
54898;DHT22;40800;52.704;6.398;2022-07-23T03:24:24;11.30;99.90
54898;DHT22;40800;52.704;6.398;2022-07-23T03:27:10;11.30;99.90
54898;DHT22;40800;52.704;6.398;2022-07-23T03:29:36;10.90;99.90
54898;DHT22;40800;52.704;6.398;2022-07-23T03:32:03;10.80;99.90
54898;DHT22;40800;52.704;6.398;2022-07-23T03:34:29;10.60;99.90
54898;DHT22;40800;52.704;6.398;2022-07-23T03:36:54;10.60;99.90
54898;DHT22;40800;52.704;6.398;2022-07-23T03:39:20;10.70;99.90
54898;DHT22;40800;52.704;6.398;2022-07-23T03:41:45;10.80;99.90
54898;DHT22;40800;52.704;6.398;2022-07-23T03:44:11;10.80;99.90
54898;DHT22;40800;52.704;6.398;2022-07-23T03:46:36;10.50;99.90
54898;DHT22;40800;52.704;6.398;2022-07-23T03:49:02;10.40;99.90
54898;DHT22;40800;52.704;6.398;2022-07-23T03:51:28;10.50;99.90
54898;DHT22;40800;52.704;6.398;2022-07-23T03:53:53;10.20;99.90
54898;DHT22;40800;52.704;6.398;2022-07-23T03:56:21;10.10;99.90
54898;DHT22;40800;52.704;6.398;2022-07-23T03:58:46;10.00;99.90
54898;DHT22;40800;52.704;6.398;2022-07-23T04:01:12;10.00;99.90
54898;DHT22;40800;52.704;6.398;2022-07-23T04:03:38;10.10;99.90
54898;DHT22;40800;52.704;6.398;2022-07-23T04:06:04;10.20;99.90
54898;DHT22;40800;52.704;6.398;2022-07-23T04:08:29;10.30;99.90
54898;DHT22;40800;52.704;6.398;2022-07-23T04:10:55;10.50;99.90
54898;DHT22;40800;52.704;6.398;2022-07-23T04:13:21;10.40;99.90
54898;DHT22;40800;52.704;6.398;2022-07-23T04:15:47;10.60;99.90
54898;DHT22;40800;52.704;6.398;2022-07-23T04:18:12;10.10;99.90
54898;DHT22;40800;52.704;6.398;2022-07-23T04:20:38;9.80;99.90
54898;DHT22;40800;52.704;6.398;2022-07-23T04:23:04;9.80;99.90
54898;DHT22;40800;52.704;6.398;2022-07-23T04:25:29;9.60;99.90
54898;DHT22;40800;52.704;6.398;2022-07-23T04:27:55;9.70;99.90
54898;DHT22;40800;52.704;6.398;2022-07-23T04:30:21;9.80;99.90
54898;DHT22;40800;52.704;6.398;2022-07-23T04:32:46;10.10;99.90
54898;DHT22;40800;52.704;6.398;2022-07-23T04:35:12;10.50;99.90
54898;DHT22;40800;52.704;6.398;2022-07-23T04:37:38;10.80;99.90
54898;DHT22;40800;52.704;6.398;2022-07-23T04:40:04;11.10;99.90
54898;DHT22;40800;52.704;6.398;2022-07-23T04:42:30;11.10;99.90
54898;DHT22;40800;52.704;6.398;2022-07-23T04:44:55;11.10;99.90
54898;DHT22;40800;52.704;6.398;2022-07-23T04:47:21;11.10;99.90
54898;DHT22;40800;52.704;6.398;2022-07-23T04:49:46;11.20;99.90
54898;DHT22;40800;52.704;6.398;2022-07-23T04:52:12;11.20;99.90
54898;DHT22;40800;52.704;6.398;2022-07-23T04:54:38;11.20;99.90
54898;DHT22;40800;52.704;6.398;2022-07-23T04:57:03;11.20;99.90
54898;DHT22;40800;52.704;6.398;2022-07-23T04:59:29;11.40;99.90
54898;DHT22;40800;52.704;6.398;2022-07-23T05:01:54;11.50;99.90
54898;DHT22;40800;52.704;6.398;2022-07-23T05:04:20;11.40;99.90
54898;DHT22;40800;52.704;6.398;2022-07-23T05:06:46;11.50;99.90
54898;DHT22;40800;52.704;6.398;2022-07-23T05:09:11;11.40;99.90
54898;DHT22;40800;52.704;6.398;2022-07-23T05:11:37;11.50;99.90
54898;DHT22;40800;52.704;6.398;2022-07-23T05:14:02;11.50;99.90
54898;DHT22;40800;52.704;6.398;2022-07-23T05:16:28;11.60;99.90
54898;DHT22;40800;52.704;6.398;2022-07-23T05:18:54;11.60;99.90
54898;DHT22;40800;52.704;6.398;2022-07-23T05:21:19;11.70;99.90
54898;DHT22;40800;52.704;6.398;2022-07-23T05:23:45;11.90;99.90
54898;DHT22;40800;52.704;6.398;2022-07-23T05:26:11;12.40;99.90
54898;DHT22;40800;52.704;6.398;2022-07-23T05:28:36;12.10;99.90
54898;DHT22;40800;52.704;6.398;2022-07-23T05:31:02;12.20;99.90
54898;DHT22;40800;52.704;6.398;2022-07-23T05:33:29;12.80;99.90
54898;DHT22;40800;52.704;6.398;2022-07-23T05:36:01;12.50;99.90
54898;DHT22;40800;52.704;6.398;2022-07-23T05:38:27;12.60;99.90
54898;DHT22;40800;52.704;6.398;2022-07-23T05:40:52;12.60;99.90
54898;DHT22;40800;52.704;6.398;2022-07-23T05:43:18;12.80;99.90
54898;DHT22;40800;52.704;6.398;2022-07-23T05:45:44;13.20;99.90
54898;DHT22;40800;52.704;6.398;2022-07-23T05:48:09;13.00;99.90
54898;DHT22;40800;52.704;6.398;2022-07-23T05:50:35;13.10;99.90
54898;DHT22;40800;52.704;6.398;2022-07-23T05:53:00;13.20;99.90
54898;DHT22;40800;52.704;6.398;2022-07-23T05:55:26;13.10;99.90
54898;DHT22;40800;52.704;6.398;2022-07-23T05:57:55;13.30;99.90
54898;DHT22;40800;52.704;6.398;2022-07-23T06:00:20;13.30;99.90
54898;DHT22;40800;52.704;6.398;2022-07-23T06:02:46;13.40;99.90
54898;DHT22;40800;52.704;6.398;2022-07-23T06:05:12;13.60;99.90
54898;DHT22;40800;52.704;6.398;2022-07-23T06:07:37;13.50;99.90
54898;DHT22;40800;52.704;6.398;2022-07-23T06:10:04;13.80;99.90
54898;DHT22;40800;52.704;6.398;2022-07-23T06:12:30;13.80;99.90
54898;DHT22;40800;52.704;6.398;2022-07-23T06:14:55;13.90;99.90
54898;DHT22;40800;52.704;6.398;2022-07-23T06:17:21;14.00;99.90
54898;DHT22;40800;52.704;6.398;2022-07-23T06:19:47;14.10;99.90
54898;DHT22;40800;52.704;6.398;2022-07-23T06:22:12;14.20;99.90
54898;DHT22;40800;52.704;6.398;2022-07-23T06:24:38;14.10;99.90
54898;DHT22;40800;52.704;6.398;2022-07-23T06:27:04;14.30;99.90
54898;DHT22;40800;52.704;6.398;2022-07-23T06:29:30;14.40;99.90
54898;DHT22;40800;52.704;6.398;2022-07-23T06:31:55;14.50;99.90
54898;DHT22;40800;52.704;6.398;2022-07-23T06:34:21;14.70;99.90
54898;DHT22;40800;52.704;6.398;2022-07-23T06:36:47;14.70;99.90
54898;DHT22;40800;52.704;6.398;2022-07-23T06:39:12;14.80;99.90
54898;DHT22;40800;52.704;6.398;2022-07-23T06:41:38;14.80;99.90
54898;DHT22;40800;52.704;6.398;2022-07-23T06:44:03;14.90;99.90
54898;DHT22;40800;52.704;6.398;2022-07-23T06:46:29;15.00;99.90
54898;DHT22;40800;52.704;6.398;2022-07-23T06:48:55;15.20;99.90
54898;DHT22;40800;52.704;6.398;2022-07-23T06:51:20;15.30;99.90
54898;DHT22;40800;52.704;6.398;2022-07-23T06:53:46;15.30;99.90
54898;DHT22;40800;52.704;6.398;2022-07-23T06:56:12;15.40;99.90
54898;DHT22;40800;52.704;6.398;2022-07-23T06:58:37;15.40;99.90
54898;DHT22;40800;52.704;6.398;2022-07-23T07:01:03;15.60;99.90
54898;DHT22;40800;52.704;6.398;2022-07-23T07:03:29;15.50;99.90
54898;DHT22;40800;52.704;6.398;2022-07-23T07:05:55;15.50;99.90
54898;DHT22;40800;52.704;6.398;2022-07-23T07:08:23;15.80;99.90
54898;DHT22;40800;52.704;6.398;2022-07-23T07:10:49;16.00;99.90
54898;DHT22;40800;52.704;6.398;2022-07-23T07:13:14;16.00;99.90
54898;DHT22;40800;52.704;6.398;2022-07-23T07:15:40;15.90;99.90
54898;DHT22;40800;52.704;6.398;2022-07-23T07:18:06;16.00;99.90
54898;DHT22;40800;52.704;6.398;2022-07-23T07:20:31;16.10;99.90
54898;DHT22;40800;52.704;6.398;2022-07-23T07:22:57;16.20;99.90
54898;DHT22;40800;52.704;6.398;2022-07-23T07:25:23;16.30;99.90
54898;DHT22;40800;52.704;6.398;2022-07-23T07:27:48;16.30;99.90
54898;DHT22;40800;52.704;6.398;2022-07-23T07:30:14;16.50;99.90
54898;DHT22;40800;52.704;6.398;2022-07-23T07:32:40;16.80;99.90
54898;DHT22;40800;52.704;6.398;2022-07-23T07:35:06;16.80;99.90
54898;DHT22;40800;52.704;6.398;2022-07-23T07:37:33;16.90;99.90
54898;DHT22;40800;52.704;6.398;2022-07-23T07:39:58;17.00;99.90
54898;DHT22;40800;52.704;6.398;2022-07-23T07:42:24;17.10;99.90
54898;DHT22;40800;52.704;6.398;2022-07-23T07:44:50;17.10;99.90
54898;DHT22;40800;52.704;6.398;2022-07-23T07:47:15;17.10;99.90
54898;DHT22;40800;52.704;6.398;2022-07-23T07:49:42;17.30;99.90
54898;DHT22;40800;52.704;6.398;2022-07-23T07:52:08;17.40;99.90
54898;DHT22;40800;52.704;6.398;2022-07-23T07:54:34;17.50;99.90
54898;DHT22;40800;52.704;6.398;2022-07-23T07:57:00;17.70;99.90
54898;DHT22;40800;52.704;6.398;2022-07-23T07:59:25;18.10;99.90
54898;DHT22;40800;52.704;6.398;2022-07-23T08:01:51;18.10;99.90
54898;DHT22;40800;52.704;6.398;2022-07-23T08:04:17;18.10;99.90
54898;DHT22;40800;52.704;6.398;2022-07-23T08:06:42;18.00;99.90
54898;DHT22;40800;52.704;6.398;2022-07-23T08:09:08;18.30;99.90
54898;DHT22;40800;52.704;6.398;2022-07-23T08:11:33;18.30;99.90
54898;DHT22;40800;52.704;6.398;2022-07-23T08:13:59;18.10;99.90
54898;DHT22;40800;52.704;6.398;2022-07-23T08:16:25;17.90;99.90
54898;DHT22;40800;52.704;6.398;2022-07-23T08:18:51;17.90;99.90
54898;DHT22;40800;52.704;6.398;2022-07-23T08:21:16;17.90;99.90
54898;DHT22;40800;52.704;6.398;2022-07-23T08:23:42;17.90;99.90
54898;DHT22;40800;52.704;6.398;2022-07-23T08:26:07;17.90;99.90
54898;DHT22;40800;52.704;6.398;2022-07-23T08:28:33;18.10;99.90
54898;DHT22;40800;52.704;6.398;2022-07-23T08:30:59;18.40;99.90
54898;DHT22;40800;52.704;6.398;2022-07-23T08:33:25;18.90;99.90
54898;DHT22;40800;52.704;6.398;2022-07-23T08:35:51;19.10;99.90
54898;DHT22;40800;52.704;6.398;2022-07-23T08:38:20;19.30;99.90
54898;DHT22;40800;52.704;6.398;2022-07-23T08:40:51;19.20;99.90
54898;DHT22;40800;52.704;6.398;2022-07-23T08:43:19;19.30;99.90
54898;DHT22;40800;52.704;6.398;2022-07-23T08:45:48;19.50;99.90
54898;DHT22;40800;52.704;6.398;2022-07-23T08:48:22;19.50;99.90
54898;DHT22;40800;52.704;6.398;2022-07-23T08:50:50;19.40;99.90
54898;DHT22;40800;52.704;6.398;2022-07-23T08:53:17;18.90;99.90
54898;DHT22;40800;52.704;6.398;2022-07-23T08:55:47;18.70;99.90
54898;DHT22;40800;52.704;6.398;2022-07-23T08:58:13;18.50;99.90
54898;DHT22;40800;52.704;6.398;2022-07-23T09:00:39;18.40;99.90
54898;DHT22;40800;52.704;6.398;2022-07-23T09:03:05;18.50;99.90
54898;DHT22;40800;52.704;6.398;2022-07-23T09:05:31;18.60;99.90
54898;DHT22;40800;52.704;6.398;2022-07-23T09:08:11;18.70;99.90
54898;DHT22;40800;52.704;6.398;2022-07-23T09:10:57;18.90;99.90
54898;DHT22;40800;52.704;6.398;2022-07-23T09:13:39;19.10;99.90
54898;DHT22;40800;52.704;6.398;2022-07-23T09:16:26;19.10;99.90
54898;DHT22;40800;52.704;6.398;2022-07-23T09:19:00;19.70;99.90
54898;DHT22;40800;52.704;6.398;2022-07-23T09:21:36;19.90;99.90
54898;DHT22;40800;52.704;6.398;2022-07-23T09:24:09;20.20;99.90
54898;DHT22;40800;52.704;6.398;2022-07-23T09:29:06;20.00;99.90
54898;DHT22;40800;52.704;6.398;2022-07-23T09:31:52;19.90;99.90
54898;DHT22;40800;52.704;6.398;2022-07-23T09:34:21;19.80;99.90
54898;DHT22;40800;52.704;6.398;2022-07-23T09:36:47;19.90;99.90
54898;DHT22;40800;52.704;6.398;2022-07-23T09:39:14;19.70;99.90
54898;DHT22;40800;52.704;6.398;2022-07-23T09:41:45;19.50;99.90
54898;DHT22;40800;52.704;6.398;2022-07-23T09:44:14;19.50;99.90
54898;DHT22;40800;52.704;6.398;2022-07-23T09:46:40;19.80;99.90
54898;DHT22;40800;52.704;6.398;2022-07-23T09:49:16;19.70;99.90
54898;DHT22;40800;52.704;6.398;2022-07-23T09:51:46;19.50;99.90
54898;DHT22;40800;52.704;6.398;2022-07-23T09:56:47;20.00;99.90
54898;DHT22;40800;52.704;6.398;2022-07-23T09:59:15;20.10;99.90
54898;DHT22;40800;52.704;6.398;2022-07-23T10:01:44;20.30;99.90
54898;DHT22;40800;52.704;6.398;2022-07-23T10:04:10;20.00;99.90
54898;DHT22;40800;52.704;6.398;2022-07-23T10:06:37;20.30;99.90
54898;DHT22;40800;52.704;6.398;2022-07-23T10:09:03;20.60;99.90
54898;DHT22;40800;52.704;6.398;2022-07-23T10:11:30;20.90;99.90
54898;DHT22;40800;52.704;6.398;2022-07-23T10:13:56;21.20;99.90
54898;DHT22;40800;52.704;6.398;2022-07-23T10:16:27;21.90;99.90
54898;DHT22;40800;52.704;6.398;2022-07-23T10:18:53;22.20;99.90
54898;DHT22;40800;52.704;6.398;2022-07-23T10:21:35;22.00;99.90
54898;DHT22;40800;52.704;6.398;2022-07-23T10:24:15;21.60;99.90
54898;DHT22;40800;52.704;6.398;2022-07-23T10:26:55;21.60;99.90
54898;DHT22;40800;52.704;6.398;2022-07-23T10:34:50;22.30;99.90
54898;DHT22;40800;52.704;6.398;2022-07-23T10:40:17;22.10;99.90
54898;DHT22;40800;52.704;6.398;2022-07-23T10:42:46;22.20;99.90
54898;DHT22;40800;52.704;6.398;2022-07-23T10:45:30;21.30;99.90
54898;DHT22;40800;52.704;6.398;2022-07-23T10:48:14;21.40;99.90
54898;DHT22;40800;52.704;6.398;2022-07-23T10:50:42;22.10;99.90
54898;DHT22;40800;52.704;6.398;2022-07-23T10:53:16;21.30;99.90
54898;DHT22;40800;52.704;6.398;2022-07-23T10:55:49;21.00;99.90
54898;DHT22;40800;52.704;6.398;2022-07-23T10:58:19;20.90;99.90
54898;DHT22;40800;52.704;6.398;2022-07-23T11:00:45;21.40;99.90
54898;DHT22;40800;52.704;6.398;2022-07-23T11:03:31;21.70;99.90
54898;DHT22;40800;52.704;6.398;2022-07-23T11:05:57;22.10;99.90
54898;DHT22;40800;52.704;6.398;2022-07-23T11:08:23;21.90;99.90
54898;DHT22;40800;52.704;6.398;2022-07-23T11:10:50;21.90;99.90
54898;DHT22;40800;52.704;6.398;2022-07-23T11:16:17;22.20;99.90
54898;DHT22;40800;52.704;6.398;2022-07-23T11:34:33;22.50;99.90
54898;DHT22;40800;52.704;6.398;2022-07-23T11:37:00;22.30;99.90
54898;DHT22;40800;52.704;6.398;2022-07-23T11:39:28;21.60;99.90
54898;DHT22;40800;52.704;6.398;2022-07-23T11:41:54;21.40;99.90
54898;DHT22;40800;52.704;6.398;2022-07-23T11:44:34;21.80;99.90
54898;DHT22;40800;52.704;6.398;2022-07-23T11:47:03;22.20;99.90
54898;DHT22;40800;52.704;6.398;2022-07-23T11:49:28;23.00;99.90
54898;DHT22;40800;52.704;6.398;2022-07-23T11:54:46;24.30;99.90
54898;DHT22;40800;52.704;6.398;2022-07-23T11:57:12;24.70;99.90
54898;DHT22;40800;52.704;6.398;2022-07-23T11:59:38;25.30;99.90
54898;DHT22;40800;52.704;6.398;2022-07-23T12:02:06;25.60;99.90
54898;DHT22;40800;52.704;6.398;2022-07-23T12:04:45;25.90;99.90
54898;DHT22;40800;52.704;6.398;2022-07-23T12:07:39;25.80;99.90
54898;DHT22;40800;52.704;6.398;2022-07-23T12:10:19;25.90;99.90
54898;DHT22;40800;52.704;6.398;2022-07-23T12:12:51;25.30;99.90
54898;DHT22;40800;52.704;6.398;2022-07-23T12:15:26;25.10;99.90
54898;DHT22;40800;52.704;6.398;2022-07-23T12:17:53;24.40;99.90
54898;DHT22;40800;52.704;6.398;2022-07-23T12:20:24;23.90;99.90
54898;DHT22;40800;52.704;6.398;2022-07-23T12:22:52;23.70;99.90
54898;DHT22;40800;52.704;6.398;2022-07-23T12:25:21;23.90;99.90
54898;DHT22;40800;52.704;6.398;2022-07-23T12:28:04;23.40;99.90
54898;DHT22;40800;52.704;6.398;2022-07-23T12:30:41;23.60;99.90
54898;DHT22;40800;52.704;6.398;2022-07-23T12:33:09;24.30;99.90
54898;DHT22;40800;52.704;6.398;2022-07-23T12:35:40;23.40;99.90
54898;DHT22;40800;52.704;6.398;2022-07-23T12:38:09;24.00;99.90
54898;DHT22;40800;52.704;6.398;2022-07-23T12:40:49;24.20;99.90
54898;DHT22;40800;52.704;6.398;2022-07-23T12:43:25;23.60;99.90
54898;DHT22;40800;52.704;6.398;2022-07-23T12:46:04;23.80;99.90
54898;DHT22;40800;52.704;6.398;2022-07-23T12:48:37;23.80;99.90
54898;DHT22;40800;52.704;6.398;2022-07-23T12:53:43;23.90;99.90
54898;DHT22;40800;52.704;6.398;2022-07-23T12:56:10;24.20;99.90
54898;DHT22;40800;52.704;6.398;2022-07-23T12:58:44;25.20;99.90
54898;DHT22;40800;52.704;6.398;2022-07-23T13:04:22;25.40;99.90
54898;DHT22;40800;52.704;6.398;2022-07-23T13:06:42;25.40;99.90
54898;DHT22;40800;52.704;6.398;2022-07-23T13:09:14;25.00;99.90
54898;DHT22;40800;52.704;6.398;2022-07-23T13:11:40;25.90;99.90
54898;DHT22;40800;52.704;6.398;2022-07-23T13:14:06;26.50;99.90
54898;DHT22;40800;52.704;6.398;2022-07-23T13:16:32;25.40;99.90
54898;DHT22;40800;52.704;6.398;2022-07-23T13:18:59;25.30;99.90
54898;DHT22;40800;52.704;6.398;2022-07-23T13:21:27;26.30;99.90
54898;DHT22;40800;52.704;6.398;2022-07-23T13:23:53;26.40;99.90
54898;DHT22;40800;52.704;6.398;2022-07-23T13:26:19;25.50;99.90
54898;DHT22;40800;52.704;6.398;2022-07-23T13:28:45;27.10;99.90
54898;DHT22;40800;52.704;6.398;2022-07-23T13:31:11;27.80;99.90
54898;DHT22;40800;52.704;6.398;2022-07-23T13:33:36;28.40;99.90
54898;DHT22;40800;52.704;6.398;2022-07-23T13:36:03;27.90;93.70
54898;DHT22;40800;52.704;6.398;2022-07-23T13:38:29;26.60;97.70
54898;DHT22;40800;52.704;6.398;2022-07-23T13:40:54;26.20;92.90
54898;DHT22;40800;52.704;6.398;2022-07-23T13:43:22;26.20;99.90
54898;DHT22;40800;52.704;6.398;2022-07-23T13:45:49;25.80;99.90
54898;DHT22;40800;52.704;6.398;2022-07-23T13:48:15;26.20;99.90
54898;DHT22;40800;52.704;6.398;2022-07-23T13:50:42;26.50;99.90
54898;DHT22;40800;52.704;6.398;2022-07-23T13:53:11;27.50;99.90
54898;DHT22;40800;52.704;6.398;2022-07-23T13:55:37;27.60;92.30
54898;DHT22;40800;52.704;6.398;2022-07-23T13:58:03;26.70;95.20
54898;DHT22;40800;52.704;6.398;2022-07-23T14:00:30;27.10;94.20
54898;DHT22;40800;52.704;6.398;2022-07-23T14:02:57;27.20;90.50
54898;DHT22;40800;52.704;6.398;2022-07-23T14:05:23;27.20;96.20
54898;DHT22;40800;52.704;6.398;2022-07-23T14:07:49;27.10;94.20
54898;DHT22;40800;52.704;6.398;2022-07-23T14:10:18;26.60;94.00
54898;DHT22;40800;52.704;6.398;2022-07-23T14:12:45;27.30;94.10
54898;DHT22;40800;52.704;6.398;2022-07-23T14:15:11;27.70;99.90
54898;DHT22;40800;52.704;6.398;2022-07-23T14:17:39;29.20;99.90
54898;DHT22;40800;52.704;6.398;2022-07-23T14:20:06;30.80;73.50
54898;DHT22;40800;52.704;6.398;2022-07-23T14:22:32;30.00;30.10
54898;DHT22;40800;52.704;6.398;2022-07-23T14:24:58;29.80;64.50
54898;DHT22;40800;52.704;6.398;2022-07-23T14:27:25;30.50;34.60
54898;DHT22;40800;52.704;6.398;2022-07-23T14:29:51;31.00;76.60
54898;DHT22;40800;52.704;6.398;2022-07-23T14:32:17;33.10;86.40
54898;DHT22;40800;52.704;6.398;2022-07-23T14:34:43;32.80;1.00
54898;DHT22;40800;52.704;6.398;2022-07-23T14:37:10;32.60;1.00
54898;DHT22;40800;52.704;6.398;2022-07-23T14:39:37;32.30;1.00
54898;DHT22;40800;52.704;6.398;2022-07-23T14:42:03;31.50;1.00
54898;DHT22;40800;52.704;6.398;2022-07-23T14:44:29;31.30;52.70
54898;DHT22;40800;52.704;6.398;2022-07-23T14:46:55;31.20;1.00
54898;DHT22;40800;52.704;6.398;2022-07-23T14:49:21;31.60;1.00
54898;DHT22;40800;52.704;6.398;2022-07-23T14:51:46;32.50;1.00
54898;DHT22;40800;52.704;6.398;2022-07-23T14:54:12;32.80;15.60
54898;DHT22;40800;52.704;6.398;2022-07-23T14:56:40;32.90;18.50
54898;DHT22;40800;52.704;6.398;2022-07-23T14:59:06;32.40;28.40
54898;DHT22;40800;52.704;6.398;2022-07-23T15:01:32;33.90;1.00
54898;DHT22;40800;52.704;6.398;2022-07-23T15:03:57;35.70;1.00
54898;DHT22;40800;52.704;6.398;2022-07-23T15:06:24;36.20;99.90
54898;DHT22;40800;52.704;6.398;2022-07-23T15:08:50;35.40;99.90
54898;DHT22;40800;52.704;6.398;2022-07-23T15:11:16;36.10;1.00
54898;DHT22;40800;52.704;6.398;2022-07-23T15:13:41;36.90;1.00
54898;DHT22;40800;52.704;6.398;2022-07-23T15:16:08;37.40;1.00
54898;DHT22;40800;52.704;6.398;2022-07-23T15:18:33;37.80;1.00
54898;DHT22;40800;52.704;6.398;2022-07-23T15:20:59;39.00;1.00
54898;DHT22;40800;52.704;6.398;2022-07-23T15:23:26;39.20;99.90
54898;DHT22;40800;52.704;6.398;2022-07-23T15:25:54;39.10;99.90
54898;DHT22;40800;52.704;6.398;2022-07-23T15:28:21;38.30;99.90
54898;DHT22;40800;52.704;6.398;2022-07-23T15:30:47;37.50;99.90
54898;DHT22;40800;52.704;6.398;2022-07-23T15:33:12;34.80;99.90
54898;DHT22;40800;52.704;6.398;2022-07-23T15:35:38;29.70;1.00
54898;DHT22;40800;52.704;6.398;2022-07-23T15:38:03;30.50;7.20
54898;DHT22;40800;52.704;6.398;2022-07-23T15:40:29;31.60;10.20
54898;DHT22;40800;52.704;6.398;2022-07-23T15:42:55;32.30;1.00
54898;DHT22;40800;52.704;6.398;2022-07-23T15:45:20;31.80;1.00
54898;DHT22;40800;52.704;6.398;2022-07-23T15:47:47;31.80;1.00
54898;DHT22;40800;52.704;6.398;2022-07-23T15:50:13;33.10;1.00
54898;DHT22;40800;52.704;6.398;2022-07-23T15:52:39;32.30;99.90
54898;DHT22;40800;52.704;6.398;2022-07-23T15:55:05;33.60;99.90
54898;DHT22;40800;52.704;6.398;2022-07-23T15:57:31;34.70;1.00
54898;DHT22;40800;52.704;6.398;2022-07-23T15:59:56;33.70;99.90
54898;DHT22;40800;52.704;6.398;2022-07-23T16:02:23;33.80;99.90
54898;DHT22;40800;52.704;6.398;2022-07-23T16:04:49;34.40;1.00
54898;DHT22;40800;52.704;6.398;2022-07-23T16:07:16;35.40;99.90
54898;DHT22;40800;52.704;6.398;2022-07-23T16:09:43;36.60;1.00
54898;DHT22;40800;52.704;6.398;2022-07-23T16:12:09;37.30;99.90
54898;DHT22;40800;52.704;6.398;2022-07-23T16:14:36;36.80;99.90